Time;durP1;ratioP1;P1;durP2;ratioP2;P2;SDS_P1;SDS_P2;PMS_P1;PMS_P2;Temp;Humidity;BMP_temperature;BMP_pressure;BME280_temperature;BME280_humidity;BME280_pressure;Samples;Min_cycle;Max_cycle;Signal;HPM_P1;HPM_P2
2021/10/02 00:35:36;;;;;;;8.97;6.33;;;15.20;99.90;;;;;;5021206;28;20442;-80
2021/10/02 00:38:13;;;;;;;10.30;6.70;;;15.10;99.90;;;;;;5021583;28;20431;-82
2021/10/02 00:46:11;;;;;;;10.43;6.20;;;15.10;99.90;;;;;;5005067;28;20774;-80
2021/10/02 00:48:38;;;;;;;8.20;6.40;;;15.20;99.90;;;;;;5007322;28;20425;-80
2021/10/02 00:51:05;;;;;;;11.30;6.57;;;15.20;99.90;;;;;;5022805;28;20466;-80
2021/10/02 00:53:33;;;;;;;9.10;6.10;;;15.20;99.90;;;;;;5022141;28;20469;-78
2021/10/02 00:56:00;;;;;;;8.40;5.60;;;15.30;99.90;;;;;;5021728;28;20502;-79
2021/10/02 00:58:30;;;;;;;7.90;5.90;;;15.40;99.90;;;;;;5022663;28;20442;-82
2021/10/02 01:00:59;;;;;;;8.30;5.70;;;15.20;99.90;;;;;;5023221;28;20450;-81
2021/10/02 01:03:39;;;;;;;9.17;6.10;;;15.00;99.90;;;;;;5025823;28;20522;-82
2021/10/02 01:06:21;;;;;;;10.70;5.67;;;14.90;99.90;;;;;;5021277;28;20537;-80
2021/10/02 01:08:59;;;;;;;8.43;6.70;;;14.90;99.90;;;;;;5021674;28;20450;-79
2021/10/02 01:11:37;;;;;;;8.77;5.97;;;14.90;99.90;;;;;;5023086;28;20447;-81
2021/10/02 01:14:19;;;;;;;7.23;5.80;;;14.90;99.90;;;;;;5032532;28;20435;-81
2021/10/02 01:16:52;;;;;;;9.03;6.63;;;14.90;99.90;;;;;;5018821;28;20474;-81
2021/10/02 01:19:43;;;;;;;7.93;6.03;;;14.90;99.90;;;;;;5019123;28;20906;-81
2021/10/02 01:22:16;;;;;;;9.27;6.30;;;14.90;99.90;;;;;;5021403;28;20414;-81
2021/10/02 01:25:08;;;;;;;7.20;5.40;;;14.90;99.90;;;;;;5020844;28;20425;-81
2021/10/02 01:27:54;;;;;;;8.53;5.90;;;15.00;99.90;;;;;;5030539;23;20519;-84
2021/10/02 01:30:34;;;;;;;10.13;6.40;;;15.00;99.90;;;;;;5005665;28;20428;-84
2021/10/02 01:33:13;;;;;;;7.53;5.20;;;15.10;99.90;;;;;;5005011;28;20440;-84
2021/10/02 01:35:45;;;;;;;10.37;6.70;;;15.00;99.90;;;;;;5006208;28;20546;-84
2021/10/02 01:49:18;;;;;;;8.73;6.03;;;15.00;99.90;;;;;;5012785;28;20423;-85
2021/10/02 01:51:46;;;;;;;9.03;6.10;;;15.10;99.90;;;;;;5017633;28;20591;-83
2021/10/02 01:54:14;;;;;;;8.63;5.57;;;15.10;99.90;;;;;;5013664;28;20882;-84
2021/10/02 01:56:42;;;;;;;9.10;6.17;;;15.10;99.90;;;;;;5013190;28;20571;-84
2021/10/02 01:59:12;;;;;;;7.20;5.37;;;15.00;99.90;;;;;;5001890;28;20461;-84
2021/10/02 02:01:42;;;;;;;10.57;5.70;;;15.10;99.90;;;;;;5005056;28;20469;-84
2021/10/02 02:04:09;;;;;;;7.20;5.27;;;15.20;99.90;;;;;;5005381;28;20452;-84
2021/10/02 02:06:37;;;;;;;12.37;6.50;;;15.20;99.90;;;;;;5003566;28;20483;-84
2021/10/02 02:09:06;;;;;;;7.23;5.53;;;15.20;99.90;;;;;;5012648;28;20494;-84
2021/10/02 02:11:35;;;;;;;8.30;5.70;;;15.10;99.90;;;;;;5021792;28;20460;-84
2021/10/02 02:14:03;;;;;;;7.70;5.40;;;15.20;99.90;;;;;;5022646;28;20539;-84
2021/10/02 02:16:32;;;;;;;6.30;4.70;;;15.10;99.90;;;;;;5021302;28;20512;-84
2021/10/02 02:19:00;;;;;;;10.63;5.43;;;15.10;99.90;;;;;;5021543;28;20462;-84
2021/10/02 02:21:28;;;;;;;8.73;6.00;;;15.10;99.90;;;;;;5030793;28;20460;-85
2021/10/02 02:23:56;;;;;;;9.23;5.43;;;15.00;99.90;;;;;;5021590;28;20512;-84
2021/10/02 02:26:25;;;;;;;8.47;5.73;;;15.00;99.90;;;;;;5014153;28;20452;-85
2021/10/02 02:28:52;;;;;;;10.27;5.80;;;15.00;99.90;;;;;;5005948;28;20868;-84
2021/10/02 02:31:19;;;;;;;9.40;5.80;;;14.90;99.90;;;;;;5005010;28;20459;-84
2021/10/02 02:33:48;;;;;;;7.83;5.87;;;14.90;99.90;;;;;;5005108;28;20544;-84
2021/10/02 02:36:15;;;;;;;9.53;5.50;;;14.90;99.90;;;;;;5004585;28;20511;-84
2021/10/02 02:38:42;;;;;;;10.53;5.97;;;15.00;99.90;;;;;;5004364;28;20458;-85
2021/10/02 02:41:09;;;;;;;7.80;5.37;;;15.10;99.90;;;;;;5004653;28;20430;-84
2021/10/02 02:43:36;;;;;;;9.07;5.77;;;15.10;99.90;;;;;;5003926;28;20479;-84
2021/10/02 02:46:07;;;;;;;9.30;6.10;;;15.00;99.90;;;;;;5003295;28;20482;-84
2021/10/02 02:48:40;;;;;;;7.83;5.60;;;15.00;99.90;;;;;;5004227;28;20566;-84
2021/10/02 02:51:13;;;;;;;7.90;6.00;;;15.00;99.90;;;;;;5012185;28;20447;-84
2021/10/02 02:53:46;;;;;;;9.50;6.17;;;14.90;99.90;;;;;;5028882;28;20497;-85
2021/10/02 02:56:18;;;;;;;12.20;6.63;;;14.70;99.90;;;;;;5036881;28;20444;-85
2021/10/02 02:58:50;;;;;;;8.23;5.30;;;14.70;99.90;;;;;;5030906;28;20439;-84
2021/10/02 03:01:20;;;;;;;8.50;6.07;;;14.70;99.90;;;;;;5023267;28;20414;-84
2021/10/02 03:03:48;;;;;;;8.53;5.60;;;14.70;99.90;;;;;;5023468;28;20466;-84
2021/10/02 03:06:18;;;;;;;9.10;6.70;;;14.70;99.90;;;;;;5007259;28;20480;-84
2021/10/02 03:08:49;;;;;;;9.40;6.07;;;14.70;99.90;;;;;;5003227;28;20542;-84
2021/10/02 03:11:20;;;;;;;8.33;5.97;;;14.90;99.90;;;;;;5003980;28;20597;-84
2021/10/02 03:13:51;;;;;;;8.17;5.93;;;14.90;99.90;;;;;;5003957;28;20408;-84
2021/10/02 03:16:20;;;;;;;8.90;6.53;;;15.00;99.90;;;;;;5003212;28;20582;-85
2021/10/02 03:18:53;;;;;;;9.47;6.70;;;15.00;99.90;;;;;;5002976;28;20452;-84
2021/10/02 03:21:23;;;;;;;11.70;6.37;;;15.10;99.90;;;;;;5006612;28;20530;-85
2021/10/02 03:23:51;;;;;;;10.23;5.70;;;15.10;99.90;;;;;;5022761;28;20555;-84
2021/10/02 03:26:18;;;;;;;8.53;6.30;;;14.90;99.90;;;;;;5022721;28;20457;-84
2021/10/02 03:28:48;;;;;;;7.77;5.27;;;14.90;99.90;;;;;;5022592;28;20548;-84
2021/10/02 03:31:16;;;;;;;9.03;6.13;;;15.00;99.90;;;;;;5022793;28;20518;-84
2021/10/02 03:33:43;;;;;;;11.70;6.90;;;14.90;99.90;;;;;;5022888;28;20482;-84
2021/10/02 03:36:10;;;;;;;9.20;5.80;;;14.80;99.90;;;;;;5013423;28;20481;-84
2021/10/02 03:38:38;;;;;;;9.50;5.77;;;14.70;99.90;;;;;;5004200;28;20860;-84
2021/10/02 03:41:06;;;;;;;8.60;5.93;;;14.70;99.90;;;;;;5008347;28;20478;-84
2021/10/02 03:43:35;;;;;;;9.10;5.97;;;14.80;99.90;;;;;;5007786;28;20486;-84
2021/10/02 03:46:02;;;;;;;7.53;5.13;;;14.80;99.90;;;;;;5009024;28;20454;-84
2021/10/02 03:48:29;;;;;;;8.00;5.97;;;14.90;99.90;;;;;;5010311;28;20637;-84
2021/10/02 03:50:57;;;;;;;10.80;6.30;;;14.80;99.90;;;;;;5023102;28;20580;-84
2021/10/02 03:53:24;;;;;;;11.30;6.67;;;14.80;99.90;;;;;;5034129;28;20462;-83
2021/10/02 03:55:52;;;;;;;7.57;6.00;;;14.70;99.90;;;;;;5031419;28;20630;-84
2021/10/02 03:58:19;;;;;;;8.50;5.40;;;14.70;99.90;;;;;;5027293;28;20486;-84
2021/10/02 04:00:46;;;;;;;8.97;5.63;;;14.70;99.90;;;;;;5027282;28;20451;-84
2021/10/02 04:03:13;;;;;;;6.90;5.83;;;14.60;99.90;;;;;;5026666;28;20470;-84
2021/10/02 04:05:40;;;;;;;7.80;5.30;;;14.60;99.90;;;;;;5008004;28;20433;-84
2021/10/02 04:08:07;;;;;;;11.30;6.10;;;14.50;99.90;;;;;;5005788;28;20476;-84
2021/10/02 04:10:34;;;;;;;7.93;6.03;;;14.60;99.90;;;;;;5007406;28;20494;-84
2021/10/02 04:13:02;;;;;;;11.37;6.67;;;14.70;99.90;;;;;;5017580;28;20496;-84
2021/10/02 04:15:30;;;;;;;9.97;6.10;;;14.70;99.90;;;;;;5018500;28;20530;-85
2021/10/02 04:17:57;;;;;;;10.70;6.70;;;14.70;99.90;;;;;;5012292;28;20490;-84
2021/10/02 04:20:24;;;;;;;7.50;5.23;;;14.60;99.90;;;;;;5014082;28;20508;-84
2021/10/02 04:22:51;;;;;;;10.77;5.67;;;14.50;99.90;;;;;;5012669;28;20466;-84
2021/10/02 04:25:18;;;;;;;8.23;6.20;;;14.50;99.90;;;;;;5007786;28;20454;-84
2021/10/02 04:27:45;;;;;;;7.90;6.03;;;14.60;99.90;;;;;;5006415;28;20482;-85
2021/10/02 04:30:13;;;;;;;9.40;6.30;;;14.60;99.90;;;;;;5007125;28;20426;-84
2021/10/02 04:32:40;;;;;;;9.67;5.70;;;14.70;99.90;;;;;;5016845;28;20422;-85
2021/10/02 04:35:07;;;;;;;9.13;6.40;;;14.70;99.90;;;;;;5030893;28;20454;-84
2021/10/02 04:37:34;;;;;;;9.30;6.83;;;14.60;99.90;;;;;;5028936;28;20469;-85
2021/10/02 04:40:01;;;;;;;9.77;6.27;;;14.60;99.90;;;;;;5026847;28;20734;-84
2021/10/02 04:42:27;;;;;;;8.10;6.43;;;14.60;99.90;;;;;;5026925;28;20439;-84
2021/10/02 04:44:54;;;;;;;8.47;6.63;;;14.60;99.90;;;;;;5026008;28;20431;-84
2021/10/02 04:47:23;;;;;;;8.33;6.07;;;14.60;99.90;;;;;;5025588;28;20513;-85
2021/10/02 04:49:50;;;;;;;14.13;6.17;;;14.70;99.90;;;;;;5015628;28;20416;-86
2021/10/02 04:52:17;;;;;;;9.30;6.23;;;14.70;99.90;;;;;;5013539;28;20450;-84
2021/10/02 04:54:43;;;;;;;7.93;5.20;;;14.80;99.90;;;;;;5007334;28;20430;-84
2021/10/02 04:57:10;;;;;;;8.73;6.23;;;14.80;99.90;;;;;;5009751;28;20955;-84
2021/10/02 04:59:37;;;;;;;10.60;6.53;;;14.60;99.90;;;;;;5005891;28;20497;-84
2021/10/02 05:02:04;;;;;;;8.63;5.70;;;14.50;99.90;;;;;;5019211;28;20538;-84
2021/10/02 05:04:32;;;;;;;9.07;6.90;;;14.50;99.90;;;;;;5024958;28;20429;-84
2021/10/02 05:06:59;;;;;;;9.53;6.70;;;14.50;99.90;;;;;;5025360;28;20551;-84
2021/10/02 05:09:26;;;;;;;8.73;7.17;;;14.50;99.90;;;;;;5025152;28;20543;-84
2021/10/02 05:11:53;;;;;;;8.10;6.60;;;14.50;99.90;;;;;;5024941;28;20433;-84
2021/10/02 05:14:19;;;;;;;11.00;7.70;;;14.50;99.90;;;;;;5033217;28;20976;-83
2021/10/02 05:16:46;;;;;;;11.60;7.33;;;14.40;99.90;;;;;;5010459;28;20543;-83
2021/10/02 05:19:13;;;;;;;9.80;7.83;;;14.30;99.90;;;;;;5014108;28;20491;-83
2021/10/02 05:21:41;;;;;;;10.83;6.87;;;14.30;99.90;;;;;;5010425;28;20968;-84
2021/10/02 05:24:08;;;;;;;10.43;7.20;;;14.30;99.90;;;;;;5005225;28;20441;-84
2021/10/02 05:26:35;;;;;;;10.33;7.67;;;14.30;99.90;;;;;;5005410;28;20510;-84
2021/10/02 05:29:02;;;;;;;19.67;8.43;;;14.40;99.90;;;;;;5007455;28;20497;-85
2021/10/02 05:31:28;;;;;;;14.93;7.90;;;14.40;99.90;;;;;;5025114;28;20541;-84
2021/10/02 05:33:55;;;;;;;14.00;8.00;;;14.40;99.90;;;;;;5025589;28;20481;-84
2021/10/02 05:36:22;;;;;;;11.90;6.90;;;14.40;99.90;;;;;;5024450;28;20565;-84
2021/10/02 05:38:50;;;;;;;13.20;7.20;;;14.50;99.90;;;;;;5024843;28;20428;-84
2021/10/02 05:41:17;;;;;;;10.37;8.30;;;14.50;99.90;;;;;;5024963;28;20485;-86
2021/10/02 05:43:44;;;;;;;11.50;8.00;;;14.60;99.90;;;;;;5019234;28;20426;-84
2021/10/02 05:46:10;;;;;;;11.90;7.20;;;14.60;99.90;;;;;;5004620;28;20481;-84
2021/10/02 05:48:37;;;;;;;14.00;6.50;;;14.70;99.90;;;;;;5004687;28;20479;-84
2021/10/02 05:51:05;;;;;;;8.20;6.60;;;14.90;99.90;;;;;;5004353;28;20426;-84
2021/10/02 05:53:32;;;;;;;11.63;7.13;;;15.00;99.90;;;;;;5004354;28;20455;-84
2021/10/02 05:56:00;;;;;;;7.93;6.20;;;15.00;99.90;;;;;;5004164;28;20558;-84
2021/10/02 05:58:27;;;;;;;11.10;7.10;;;15.00;99.90;;;;;;5012240;28;20436;-84
2021/10/02 06:00:54;;;;;;;10.10;7.20;;;14.90;99.90;;;;;;5021929;28;20471;-84
2021/10/02 06:03:20;;;;;;;12.33;7.43;;;14.80;99.90;;;;;;5022270;28;20487;-84
2021/10/02 06:05:47;;;;;;;9.80;6.67;;;14.80;99.90;;;;;;5023540;28;20456;-85
2021/10/02 06:08:14;;;;;;;11.93;8.47;;;14.80;99.90;;;;;;5026830;28;21003;-84
2021/10/02 06:10:41;;;;;;;11.70;8.13;;;14.80;99.90;;;;;;5035710;28;20444;-84
2021/10/02 06:13:09;;;;;;;11.37;7.47;;;14.90;99.90;;;;;;5011704;28;20428;-84
2021/10/02 06:15:36;;;;;;;11.63;7.40;;;15.00;99.90;;;;;;5004843;28;20584;-85
2021/10/02 06:18:03;;;;;;;11.27;6.73;;;15.00;99.90;;;;;;5008923;28;20455;-86
2021/10/02 06:20:30;;;;;;;9.20;7.20;;;15.00;99.90;;;;;;5023767;28;20460;-84
2021/10/02 06:22:56;;;;;;;11.80;7.10;;;14.90;99.90;;;;;;5024371;28;20524;-84
2021/10/02 06:25:23;;;;;;;10.50;7.53;;;14.90;99.90;;;;;;5024198;28;20488;-84
2021/10/02 06:27:50;;;;;;;13.10;7.67;;;15.00;99.90;;;;;;5023978;28;20476;-84
2021/10/02 06:30:18;;;;;;;11.53;7.60;;;15.00;99.90;;;;;;5033967;28;20468;-85
2021/10/02 06:32:45;;;;;;;10.90;6.90;;;15.10;99.90;;;;;;5025913;28;20520;-85
2021/10/02 06:35:12;;;;;;;8.50;6.40;;;15.20;99.90;;;;;;5023946;28;20462;-85
2021/10/02 06:37:39;;;;;;;14.53;7.63;;;15.30;99.90;;;;;;5023340;28;20537;-85
2021/10/02 06:40:07;;;;;;;11.97;6.57;;;15.40;99.90;;;;;;5029378;28;20510;-85
2021/10/02 06:42:34;;;;;;;10.27;8.03;;;15.30;99.90;;;;;;5033794;28;20505;-85
2021/10/02 06:45:01;;;;;;;8.60;7.10;;;15.30;99.90;;;;;;5031058;28;20443;-85
2021/10/02 06:47:29;;;;;;;10.80;6.97;;;15.30;99.90;;;;;;5004521;28;20496;-85
2021/10/02 06:49:58;;;;;;;9.87;7.03;;;15.40;99.90;;;;;;5003229;28;20908;-85
2021/10/02 06:52:25;;;;;;;10.47;7.10;;;15.40;99.90;;;;;;5003530;28;20455;-85
2021/10/02 06:54:52;;;;;;;12.60;7.07;;;15.50;99.90;;;;;;5005006;28;20543;-85
2021/10/02 06:57:19;;;;;;;10.07;7.00;;;15.60;99.90;;;;;;5004134;28;20976;-85
2021/10/02 06:59:46;;;;;;;9.87;6.90;;;15.60;99.90;;;;;;5007926;28;20450;-85
2021/10/02 07:02:13;;;;;;;10.80;7.30;;;15.70;99.90;;;;;;5022735;28;20462;-85
2021/10/02 07:04:42;;;;;;;11.93;7.40;;;15.60;99.90;;;;;;5021194;28;20519;-85
2021/10/02 07:07:09;;;;;;;12.17;7.53;;;15.50;99.90;;;;;;5021966;28;20470;-85
2021/10/02 07:09:36;;;;;;;11.37;7.77;;;15.50;99.90;;;;;;5022134;28;20496;-84
2021/10/02 07:12:03;;;;;;;9.70;6.80;;;15.50;99.90;;;;;;5024564;28;20522;-84
2021/10/02 07:14:30;;;;;;;9.63;7.00;;;15.60;99.90;;;;;;5027615;28;20447;-84
2021/10/02 07:16:57;;;;;;;10.80;7.33;;;15.70;99.90;;;;;;5016049;28;20463;-84
2021/10/02 07:19:24;;;;;;;9.37;7.27;;;15.80;99.90;;;;;;5011924;28;20507;-84
2021/10/02 07:21:52;;;;;;;8.70;6.60;;;15.90;99.90;;;;;;5004431;28;20468;-84
2021/10/02 07:24:20;;;;;;;10.10;7.50;;;15.90;99.90;;;;;;5003320;28;20427;-84
2021/10/02 07:26:47;;;;;;;9.60;6.60;;;16.00;99.90;;;;;;5024224;23;20480;-81
2021/10/02 07:29:14;;;;;;;10.03;7.17;;;16.10;99.90;;;;;;5008575;28;20498;-80
2021/10/02 07:31:42;;;;;;;11.07;6.97;;;16.10;99.90;;;;;;5016914;28;21006;-81
2021/10/02 07:34:09;;;;;;;10.37;7.43;;;16.10;99.90;;;;;;5015873;28;20427;-82
2021/10/02 07:36:36;;;;;;;12.30;7.37;;;16.10;99.90;;;;;;5016381;28;20594;-81
2021/10/02 07:39:04;;;;;;;9.47;6.87;;;16.20;99.90;;;;;;5016399;28;20431;-81
2021/10/02 07:41:37;;;;;;;12.77;8.70;;;16.20;99.90;;;;;;5016173;28;20458;-82
2021/10/02 07:44:05;;;;;;;9.20;7.37;;;16.20;99.90;;;;;;4999516;28;20427;-81
2021/10/02 07:46:33;;;;;;;9.20;6.70;;;16.20;99.90;;;;;;4999166;28;20477;-82
2021/10/02 07:49:01;;;;;;;8.93;6.30;;;16.30;99.90;;;;;;4998798;28;20521;-82
2021/10/02 07:51:28;;;;;;;9.10;5.90;;;16.40;99.90;;;;;;4996932;28;20428;-82
2021/10/02 07:53:56;;;;;;;11.33;6.13;;;16.50;99.90;;;;;;4996790;28;20444;-81
2021/10/02 07:56:26;;;;;;;7.00;5.30;;;16.60;99.90;;;;;;4997943;28;20462;-82
2021/10/02 07:58:54;;;;;;;7.70;5.70;;;16.70;99.90;;;;;;5016408;28;20481;-81
2021/10/02 08:01:22;;;;;;;7.50;5.40;;;16.70;99.90;;;;;;5016366;28;20427;-81
2021/10/02 08:03:52;;;;;;;8.00;5.13;;;16.70;99.90;;;;;;5016076;28;20438;-81
2021/10/02 08:06:22;;;;;;;7.57;5.30;;;16.70;99.90;;;;;;5017959;28;20483;-82
2021/10/02 08:08:51;;;;;;;7.57;5.43;;;16.70;99.90;;;;;;5016444;28;20497;-81
2021/10/02 08:11:18;;;;;;;9.03;5.23;;;16.80;99.90;;;;;;5010039;28;20422;-83
2021/10/02 08:13:46;;;;;;;6.20;4.80;;;16.90;99.90;;;;;;5007286;28;20462;-80
2021/10/02 08:16:15;;;;;;;7.83;5.00;;;17.00;99.90;;;;;;5001198;28;20454;-81
2021/10/02 08:18:45;;;;;;;6.30;5.17;;;17.00;99.90;;;;;;5006025;28;20458;-81
2021/10/02 08:21:14;;;;;;;6.93;4.63;;;17.10;99.90;;;;;;5002484;28;20529;-81
2021/10/02 08:23:42;;;;;;;10.23;5.13;;;17.20;99.90;;;;;;4997836;28;20465;-81
2021/10/02 08:26:14;;;;;;;6.90;5.50;;;17.30;99.90;;;;;;5009850;28;20456;-80
2021/10/02 08:28:46;;;;;;;7.23;5.50;;;17.40;99.90;;;;;;5023136;28;20531;-82
2021/10/02 08:31:15;;;;;;;7.00;4.37;;;17.50;99.90;;;;;;5021237;28;20441;-79
2021/10/02 08:33:41;;;;;;;6.73;4.60;;;17.50;99.90;;;;;;5024023;28;20828;-80
2021/10/02 08:36:09;;;;;;;6.57;3.77;;;17.60;99.90;;;;;;5020413;28;20452;-80
2021/10/02 08:38:36;;;;;;;7.50;4.10;;;17.70;99.90;;;;;;5019684;28;20603;-81
2021/10/02 08:41:06;;;;;;;6.00;3.30;;;17.80;99.90;;;;;;5000580;28;20534;-80
2021/10/02 08:43:35;;;;;;;4.60;3.17;;;17.90;99.90;;;;;;5002204;28;20451;-80
2021/10/02 08:46:04;;;;;;;6.97;3.87;;;18.00;99.90;;;;;;5002357;28;20462;-78
2021/10/02 08:48:32;;;;;;;6.10;3.77;;;18.10;99.90;;;;;;4999544;28;20480;-79
2021/10/02 08:51:03;;;;;;;5.00;3.30;;;18.20;99.90;;;;;;4998823;28;20496;-80
2021/10/02 08:53:33;;;;;;;5.00;3.20;;;18.30;99.90;;;;;;5014426;28;20424;-81
2021/10/02 08:56:00;;;;;;;8.67;3.53;;;18.50;99.90;;;;;;5017600;28;20462;-80
2021/10/02 08:58:27;;;;;;;10.80;4.37;;;18.60;99.90;;;;;;5017779;28;20453;-78
2021/10/02 09:00:54;;;;;;;5.47;3.03;;;18.60;99.90;;;;;;5018300;28;20768;-80
2021/10/02 09:03:22;;;;;;;7.20;3.27;;;18.60;99.90;;;;;;5017159;28;20473;-79
2021/10/02 09:05:49;;;;;;;4.83;2.50;;;18.60;99.90;;;;;;5016127;28;20434;-80
2021/10/02 09:08:16;;;;;;;5.77;3.90;;;18.70;99.90;;;;;;4998572;28;20502;-80
2021/10/02 09:10:43;;;;;;;5.30;2.70;;;18.80;99.90;;;;;;4998527;28;20545;-80
2021/10/02 09:13:10;;;;;;;3.90;2.40;;;18.90;98.60;;;;;;4998571;28;20430;-80
2021/10/02 09:15:37;;;;;;;5.23;2.57;;;18.90;96.90;;;;;;5010380;28;20443;-80
2021/10/02 09:18:04;;;;;;;5.63;2.47;;;19.00;96.20;;;;;;5006949;28;20477;-80
2021/10/02 09:20:32;;;;;;;4.43;2.47;;;19.00;96.20;;;;;;4997805;28;20468;-80
2021/10/02 09:23:01;;;;;;;5.37;3.00;;;19.00;96.00;;;;;;5005064;28;20458;-79
2021/10/02 09:25:31;;;;;;;4.80;2.63;;;19.00;96.20;;;;;;5016987;28;20461;-80
2021/10/02 09:28:06;;;;;;;5.73;2.63;;;19.10;96.30;;;;;;5017192;28;20486;-81
2021/10/02 09:30:34;;;;;;;4.37;2.60;;;19.10;96.40;;;;;;5017688;28;20555;-80
2021/10/02 09:33:12;;;;;;;7.87;3.20;;;19.20;96.10;;;;;;5017316;28;20438;-80
2021/10/02 09:35:42;;;;;;;4.63;2.80;;;19.30;96.20;;;;;;5017576;28;20438;-80
2021/10/02 09:38:12;;;;;;;5.73;2.70;;;19.40;96.00;;;;;;5017396;28;20478;-80
2021/10/02 09:40:40;;;;;;;5.50;3.10;;;19.40;95.90;;;;;;5015317;28;20911;-80
2021/10/02 09:43:07;;;;;;;5.03;2.83;;;19.40;96.00;;;;;;5017011;28;20450;-81
2021/10/02 09:45:38;;;;;;;5.73;3.10;;;19.50;96.10;;;;;;5017413;28;20974;-82
2021/10/02 09:48:07;;;;;;;6.53;3.30;;;19.50;95.80;;;;;;5017312;28;20498;-81
2021/10/02 09:50:36;;;;;;;6.00;2.67;;;19.60;95.90;;;;;;5017230;28;20486;-81
2021/10/02 09:53:06;;;;;;;4.77;2.97;;;19.70;96.10;;;;;;5018675;28;20922;-81
2021/10/02 09:55:35;;;;;;;7.80;3.53;;;19.70;96.20;;;;;;5015735;28;20558;-81
2021/10/02 09:58:04;;;;;;;6.03;3.33;;;19.80;96.60;;;;;;4997957;28;20558;-80
2021/10/02 10:00:33;;;;;;;5.50;3.10;;;19.80;96.80;;;;;;4996796;28;20533;-80
2021/10/02 10:03:03;;;;;;;7.23;4.10;;;19.80;97.10;;;;;;4997723;28;20939;-80
2021/10/02 10:05:34;;;;;;;6.10;4.07;;;19.80;97.00;;;;;;4997533;28;20442;-79
2021/10/02 10:08:04;;;;;;;5.47;3.50;;;19.90;97.30;;;;;;4997625;28;20503;-81
2021/10/02 10:10:33;;;;;;;5.57;3.60;;;19.90;97.50;;;;;;4997483;28;20510;-80
2021/10/02 10:13:04;;;;;;;4.93;3.60;;;20.00;97.60;;;;;;5010489;28;20462;-81
2021/10/02 10:15:35;;;;;;;7.57;3.83;;;20.10;97.50;;;;;;5017448;28;20439;-81
2021/10/02 10:18:03;;;;;;;5.93;3.70;;;20.20;97.50;;;;;;5016707;28;20536;-80
2021/10/02 10:20:42;;;;;;;5.30;3.70;;;20.30;97.60;;;;;;5018023;28;20470;-80
2021/10/02 10:23:11;;;;;;;5.63;3.77;;;20.30;97.40;;;;;;5019668;28;20431;-81
2021/10/02 10:25:50;;;;;;;6.90;4.00;;;20.40;97.30;;;;;;5016564;28;20979;-81
2021/10/02 10:28:19;;;;;;;6.10;3.70;;;20.50;97.20;;;;;;5015933;28;20492;-81
2021/10/02 10:30:48;;;;;;;5.27;3.77;;;20.60;97.20;;;;;;5013821;28;20493;-81
2021/10/02 10:33:16;;;;;;;5.63;3.67;;;20.60;97.30;;;;;;5016232;28;20432;-81
2021/10/02 10:35:45;;;;;;;7.30;4.47;;;20.70;97.20;;;;;;5016730;28;20478;-81
2021/10/02 10:38:15;;;;;;;7.20;3.77;;;20.70;97.20;;;;;;5016240;28;20474;-81
2021/10/02 10:40:43;;;;;;;6.63;4.20;;;20.70;97.20;;;;;;5016228;28;20593;-81
2021/10/02 10:43:11;;;;;;;5.90;4.20;;;20.70;97.40;;;;;;5016490;28;20545;-81
2021/10/02 10:45:38;;;;;;;5.53;4.00;;;20.70;97.10;;;;;;5013651;28;20537;-81
2021/10/02 10:48:08;;;;;;;6.57;4.40;;;20.70;97.00;;;;;;4995881;28;20479;-79
2021/10/02 10:50:36;;;;;;;6.60;3.90;;;20.80;97.20;;;;;;4997101;28;20491;-80
2021/10/02 10:53:04;;;;;;;8.87;4.60;;;20.90;97.00;;;;;;4996396;28;20890;-82
2021/10/02 10:55:33;;;;;;;8.07;4.77;;;20.80;96.90;;;;;;5001353;28;20473;-82
2021/10/02 10:58:01;;;;;;;8.00;4.07;;;20.90;97.00;;;;;;5001045;28;20493;-81
2021/10/02 11:00:43;;;;;;;6.00;4.30;;;21.00;97.10;;;;;;4998499;28;20549;-81
2021/10/02 11:03:11;;;;;;;8.07;4.20;;;21.00;96.90;;;;;;4997510;28;20563;-81
2021/10/02 11:05:49;;;;;;;6.90;4.50;;;21.00;97.10;;;;;;4995695;28;20467;-82
2021/10/02 11:08:21;;;;;;;7.57;4.37;;;21.00;97.10;;;;;;4996209;28;20951;-81
2021/10/02 11:10:55;;;;;;;6.10;4.10;;;21.10;97.00;;;;;;4996271;28;20617;-81
2021/10/02 11:14:00;;;;;;;6.20;3.73;;;21.10;96.70;;;;;;4996640;28;20605;-82
2021/10/02 11:16:32;;;;;;;6.70;4.47;;;21.10;96.40;;;;;;4996100;28;20477;-80
2021/10/02 11:18:59;;;;;;;6.83;3.63;;;21.20;96.50;;;;;;5005405;28;20940;-82
2021/10/02 11:21:30;;;;;;;10.10;4.13;;;21.30;96.20;;;;;;5018441;28;20459;-80
2021/10/02 11:24:12;;;;;;;7.83;3.90;;;21.30;96.10;;;;;;5015701;28;20462;-81
2021/10/02 11:26:56;;;;;;;6.03;4.33;;;21.40;96.40;;;;;;5016839;28;20509;-79
2021/10/02 11:29:27;;;;;;;5.00;3.20;;;21.40;96.30;;;;;;5017809;28;20453;-80
2021/10/02 11:32:36;;;;;;;8.50;4.70;;;21.50;95.90;;;;;;5015215;28;20920;-81
2021/10/02 11:35:11;;;;;;;7.90;4.57;;;21.60;95.90;;;;;;5015292;28;20438;-80
2021/10/02 11:37:44;;;;;;;6.30;4.30;;;21.60;95.60;;;;;;5002137;28;20471;-80
2021/10/02 11:40:43;;;;;;;5.43;3.63;;;21.60;95.60;;;;;;4996665;28;20443;-81
2021/10/02 11:43:29;;;;;;;7.40;4.30;;;21.70;95.30;;;;;;4995773;28;20540;-80
2021/10/02 11:46:05;;;;;;;7.90;3.37;;;21.70;95.30;;;;;;4996676;28;20915;-81
2021/10/02 11:48:41;;;;;;;5.97;3.30;;;21.80;95.00;;;;;;4996784;28;20431;-81
2021/10/02 11:51:35;;;;;;;5.90;4.03;;;21.90;94.60;;;;;;4996048;28;20481;-80
2021/10/02 11:54:16;;;;;;;6.40;4.30;;;21.90;94.80;;;;;;5009217;28;20446;-80
2021/10/02 11:56:44;;;;;;;8.23;4.50;;;22.00;95.10;;;;;;5017307;28;21061;-81
2021/10/02 11:59:12;;;;;;;4.80;3.37;;;22.10;94.80;;;;;;5020912;28;20452;-79
2021/10/02 12:01:42;;;;;;;8.27;4.47;;;22.10;94.10;;;;;;5023429;28;20508;-81
2021/10/02 12:04:10;;;;;;;7.33;3.83;;;22.00;94.10;;;;;;5020797;28;20497;-81
2021/10/02 12:06:40;;;;;;;6.93;4.20;;;22.00;94.50;;;;;;5019668;28;20991;-79
2021/10/02 12:09:12;;;;;;;6.47;3.80;;;22.00;94.20;;;;;;5016648;28;20462;-80
2021/10/02 12:11:45;;;;;;;7.13;4.20;;;22.00;94.60;;;;;;4999775;28;20475;-81
2021/10/02 12:14:18;;;;;;;6.33;4.20;;;22.00;94.80;;;;;;5000028;28;20513;-81
2021/10/02 12:16:51;;;;;;;8.80;4.93;;;22.10;95.10;;;;;;5003236;28;20491;-80
2021/10/02 12:19:21;;;;;;;6.83;3.40;;;22.10;95.20;;;;;;4999924;28;20435;-82
2021/10/02 12:21:49;;;;;;;7.30;3.67;;;22.00;95.40;;;;;;4999474;28;20463;-80
2021/10/02 12:24:19;;;;;;;9.17;3.93;;;22.10;95.10;;;;;;4999423;28;20909;-82
2021/10/02 12:26:56;;;;;;;6.00;3.90;;;22.20;94.60;;;;;;5006519;28;20484;-80
2021/10/02 12:29:27;;;;;;;6.63;4.50;;;22.20;94.60;;;;;;5020202;28;20545;-81
2021/10/02 12:31:57;;;;;;;4.90;3.73;;;22.30;94.60;;;;;;5019952;28;20546;-81
2021/10/02 12:34:27;;;;;;;5.03;3.70;;;22.40;94.70;;;;;;5022135;28;20522;-80
2021/10/02 12:36:57;;;;;;;6.87;4.63;;;22.30;94.30;;;;;;5018216;28;20474;-81
2021/10/02 12:39:36;;;;;;;6.57;3.97;;;22.40;94.00;;;;;;5019526;28;20454;-79
2021/10/02 12:42:04;;;;;;;7.63;4.20;;;22.40;93.70;;;;;;5019270;28;20533;-78
2021/10/02 12:44:35;;;;;;;7.07;3.80;;;22.50;93.70;;;;;;5004996;28;21006;-80
2021/10/02 12:47:05;;;;;;;5.47;3.83;;;22.40;93.80;;;;;;4999114;28;20481;-80
2021/10/02 12:49:34;;;;;;;6.67;3.70;;;22.40;94.00;;;;;;4998570;28;20479;-82
2021/10/02 12:52:03;;;;;;;8.93;4.27;;;22.40;94.00;;;;;;4998740;28;20856;-81
2021/10/02 12:54:30;;;;;;;7.53;4.60;;;22.50;94.20;;;;;;4998787;28;20458;-82
2021/10/02 12:57:23;;;;;;;6.10;4.07;;;22.60;94.10;;;;;;4997765;28;20475;-80
2021/10/02 12:59:59;;;;;;;7.40;4.10;;;22.60;93.60;;;;;;4998592;28;20462;-81
2021/10/02 13:02:26;;;;;;;8.03;3.73;;;22.60;93.50;;;;;;5000078;28;20520;-81
2021/10/02 13:04:53;;;;;;;6.53;3.50;;;22.70;93.00;;;;;;4998851;28;20541;-80
2021/10/02 13:07:25;;;;;;;5.50;3.93;;;22.80;93.00;;;;;;4997759;28;20562;-81
2021/10/02 13:10:01;;;;;;;5.60;3.40;;;22.90;92.80;;;;;;4997435;28;20948;-81
2021/10/02 13:12:31;;;;;;;7.63;4.57;;;22.80;92.30;;;;;;4997193;28;20442;-81
2021/10/02 13:15:00;;;;;;;5.90;4.20;;;22.80;92.70;;;;;;4997702;28;20451;-79
2021/10/02 13:17:27;;;;;;;5.87;3.70;;;23.00;92.80;;;;;;4997922;28;20558;-81
2021/10/02 13:20:24;;;;;;;5.30;3.80;;;23.10;92.40;;;;;;4998743;28;20455;-80
2021/10/02 13:22:51;;;;;;;6.37;4.37;;;23.20;92.40;;;;;;4985262;28;20452;-80
2021/10/02 13:25:22;;;;;;;5.83;4.00;;;23.20;92.00;;;;;;5007609;28;20466;-81
2021/10/02 13:27:52;;;;;;;5.30;3.67;;;23.20;92.20;;;;;;5065709;23;20563;-87
2021/10/02 13:30:22;;;;;;;5.33;3.73;;;23.20;92.30;;;;;;5003007;28;20614;-87
2021/10/02 13:33:16;;;;;;;5.90;4.50;;;23.20;92.30;;;;;;5004386;28;20519;-86
2021/10/02 13:35:48;;;;;;;6.13;3.90;;;23.20;91.80;;;;;;5003619;28;20998;-87
2021/10/02 13:38:16;;;;;;;5.70;3.30;;;23.20;91.90;;;;;;5007000;28;20868;-87
2021/10/02 13:40:52;;;;;;;5.20;3.53;;;23.20;91.40;;;;;;5003660;28;20542;-87
2021/10/02 13:43:20;;;;;;;5.57;4.30;;;23.30;91.50;;;;;;5004680;28;20428;-86
2021/10/02 13:45:52;;;;;;;5.27;3.60;;;23.20;91.40;;;;;;5006914;28;20475;-86
2021/10/02 13:48:25;;;;;;;5.63;3.97;;;23.20;91.20;;;;;;5014719;28;20528;-87
2021/10/02 13:50:52;;;;;;;7.67;3.80;;;23.20;91.20;;;;;;5007224;28;20479;-85